Time;durP1;ratioP1;P1;durP2;ratioP2;P2;SDS_P1;SDS_P2;PMS_P1;PMS_P2;Temp;Humidity;BMP_temperature;BMP_pressure;BME280_temperature;BME280_humidity;BME280_pressure;Samples;Min_cycle;Max_cycle;Signal;HPM_P1;HPM_P2
2021/06/08 00:00:54;;;;;;;2.28;2.08;;;;;;;;;;5024020;28;20066;-83
2021/06/08 00:03:22;;;;;;;1.90;1.80;;;;;;;;;;5022847;28;20041;-82
2021/06/08 00:05:50;;;;;;;2.20;2.10;;;;;;;;;;5023353;28;20093;-83
2021/06/08 00:08:16;;;;;;;3.33;1.90;;;;;;;;;;5025837;28;20032;-81
2021/06/08 00:10:42;;;;;;;2.83;2.13;;;;;;;;;;5034950;28;20102;-81
2021/06/08 00:13:08;;;;;;;2.97;1.95;;;;;;;;;;5025474;28;20022;-83
2021/06/08 00:15:39;;;;;;;1.98;1.70;;;;;;;;;;5024200;28;20029;-83
2021/06/08 00:18:05;;;;;;;1.70;1.60;;;;;;;;;;5032911;28;20026;-83
2021/06/08 00:20:31;;;;;;;2.95;2.40;;;;;;;;;;5033903;28;20038;-83
2021/06/08 00:22:57;;;;;;;3.22;2.13;;;;;;;;;;5030437;28;20034;-83
2021/06/08 00:25:24;;;;;;;2.67;2.33;;;;;;;;;;5031123;28;20098;-83
2021/06/08 00:27:51;;;;;;;2.25;2.15;;;;;;;;;;5030457;28;20347;-83
2021/06/08 00:30:18;;;;;;;2.83;2.47;;;;;;;;;;5031467;28;20537;-84
2021/06/08 00:32:44;;;;;;;2.53;2.35;;;;;;;;;;5024223;28;20526;-82
2021/06/08 00:35:10;;;;;;;2.42;1.90;;;;;;;;;;5023088;28;20068;-83
2021/06/08 00:37:37;;;;;;;3.25;3.05;;;;;;;;;;5004806;28;20037;-82
2021/06/08 00:40:04;;;;;;;2.63;2.40;;;;;;;;;;5004288;28;20041;-83
2021/06/08 00:42:31;;;;;;;4.40;2.75;;;;;;;;;;5022064;28;20573;-82
2021/06/08 00:44:57;;;;;;;2.63;2.40;;;;;;;;;;5023413;28;20030;-82
2021/06/08 00:47:23;;;;;;;2.63;2.42;;;;;;;;;;5029932;28;20046;-82
2021/06/08 00:49:49;;;;;;;3.00;2.20;;;;;;;;;;5023436;28;20034;-82
2021/06/08 00:52:15;;;;;;;2.22;2.03;;;;;;;;;;5022832;28;20115;-82
2021/06/08 00:54:42;;;;;;;2.20;2.10;;;;;;;;;;5021622;28;20034;-83
2021/06/08 00:57:08;;;;;;;2.53;2.30;;;;;;;;;;5022167;28;20028;-83
2021/06/08 00:59:34;;;;;;;2.35;2.15;;;;;;;;;;5020475;28;20041;-82
2021/06/08 01:02:00;;;;;;;2.20;2.10;;;;;;;;;;5021550;28;20026;-82
2021/06/08 01:04:26;;;;;;;3.20;2.72;;;;;;;;;;5021843;28;20371;-82
2021/06/08 01:06:52;;;;;;;2.50;2.40;;;;;;;;;;5021811;28;20033;-82
2021/06/08 01:09:18;;;;;;;2.60;2.38;;;;;;;;;;5021602;28;20040;-82
2021/06/08 01:11:44;;;;;;;2.70;2.50;;;;;;;;;;5021791;28;20026;-82
2021/06/08 01:14:10;;;;;;;2.10;2.00;;;;;;;;;;5021024;28;20054;-82
2021/06/08 01:16:36;;;;;;;2.88;2.58;;;;;;;;;;5021113;28;20054;-82
2021/06/08 01:19:03;;;;;;;2.75;2.55;;;;;;;;;;5021317;28;20042;-82
2021/06/08 01:21:29;;;;;;;2.55;2.35;;;;;;;;;;5020514;28;20083;-83
2021/06/08 01:23:56;;;;;;;3.75;2.40;;;;;;;;;;5019225;28;20488;-82
2021/06/08 01:26:26;;;;;;;2.97;1.95;;;;;;;;;;5021412;28;20105;-83
2021/06/08 01:28:53;;;;;;;4.30;2.20;;;;;;;;;;5021060;28;20026;-83
2021/06/08 01:31:23;;;;;;;2.97;2.78;;;;;;;;;;5019986;28;20037;-83
2021/06/08 01:33:50;;;;;;;3.45;3.15;;;;;;;;;;5020512;28;20022;-82
2021/06/08 01:36:17;;;;;;;4.82;2.90;;;;;;;;;;5018136;28;20040;-83
2021/06/08 01:38:44;;;;;;;2.55;2.35;;;;;;;;;;5019459;28;20030;-82
2021/06/08 01:41:14;;;;;;;2.70;2.50;;;;;;;;;;5021304;28;20026;-83
2021/06/08 01:43:41;;;;;;;3.05;2.80;;;;;;;;;;5019323;28;20040;-83
2021/06/08 01:46:08;;;;;;;2.75;2.50;;;;;;;;;;5019901;28;20029;-84
2021/06/08 01:48:34;;;;;;;3.25;2.92;;;;;;;;;;5051117;28;20064;-84
2021/06/08 01:51:03;;;;;;;3.92;3.63;;;;;;;;;;5023022;28;20034;-83
2021/06/08 01:53:43;;;;;;;2.95;2.75;;;;;;;;;;5021488;28;20359;-83
2021/06/08 01:56:15;;;;;;;3.20;2.90;;;;;;;;;;5021570;28;20057;-83
2021/06/08 01:58:41;;;;;;;3.35;2.67;;;;;;;;;;5054164;22;20040;-83
2021/06/08 02:01:13;;;;;;;3.35;3.05;;;;;;;;;;5031953;28;20377;-83
2021/06/08 02:03:40;;;;;;;3.03;2.67;;;;;;;;;;5023084;28;20385;-83
2021/06/08 02:06:09;;;;;;;3.63;3.30;;;;;;;;;;5023728;28;20029;-83
2021/06/08 02:08:51;;;;;;;4.43;4.03;;;;;;;;;;5038465;28;20116;-83
2021/06/08 02:11:22;;;;;;;3.35;2.95;;;;;;;;;;5023877;28;20041;-83
2021/06/08 02:13:51;;;;;;;3.47;3.20;;;;;;;;;;5024015;28;20052;-82
2021/06/08 02:16:38;;;;;;;2.50;2.30;;;;;;;;;;5022989;28;20022;-83
2021/06/08 02:19:05;;;;;;;3.13;2.78;;;;;;;;;;5022003;28;20069;-83
2021/06/08 02:21:32;;;;;;;2.67;2.47;;;;;;;;;;5021834;28;20148;-82
2021/06/08 02:23:58;;;;;;;2.70;2.50;;;;;;;;;;5022851;28;20026;-82
2021/06/08 02:26:25;;;;;;;2.97;2.78;;;;;;;;;;5024160;28;20034;-83
2021/06/08 02:28:52;;;;;;;3.45;3.03;;;;;;;;;;5061853;28;20017;-82
2021/06/08 02:31:19;;;;;;;3.88;3.58;;;;;;;;;;5046331;28;20025;-83
2021/06/08 02:33:49;;;;;;;3.17;2.95;;;;;;;;;;5043259;28;20071;-82
2021/06/08 02:36:15;;;;;;;3.67;2.72;;;;;;;;;;5041636;28;20033;-82
2021/06/08 02:38:42;;;;;;;3.22;2.25;;;;;;;;;;5041706;28;20068;-82
2021/06/08 02:41:09;;;;;;;3.20;2.83;;;;;;;;;;5042843;28;20086;-83
2021/06/08 02:43:36;;;;;;;2.90;2.70;;;;;;;;;;5041479;28;20063;-82
2021/06/08 02:46:02;;;;;;;2.70;2.50;;;;;;;;;;5041104;28;20091;-82
2021/06/08 02:48:28;;;;;;;2.63;2.42;;;;;;;;;;5043080;28;20025;-82
2021/06/08 02:50:55;;;;;;;3.63;3.28;;;;;;;;;;5043214;28;20029;-82
2021/06/08 02:53:22;;;;;;;3.05;2.85;;;;;;;;;;5042622;28;20308;-82
2021/06/08 02:55:50;;;;;;;2.83;2.63;;;;;;;;;;5041758;28;20025;-82
2021/06/08 02:58:16;;;;;;;2.65;2.45;;;;;;;;;;5044293;28;20033;-83
2021/06/08 03:00:42;;;;;;;2.42;2.22;;;;;;;;;;5052779;28;20075;-83
2021/06/08 03:03:09;;;;;;;2.70;2.50;;;;;;;;;;5044717;28;20037;-82
2021/06/08 03:05:39;;;;;;;2.15;2.05;;;;;;;;;;5047041;28;20053;-81
2021/06/08 03:08:09;;;;;;;2.38;2.17;;;;;;;;;;5045242;28;20033;-83
2021/06/08 03:10:36;;;;;;;2.95;2.75;;;;;;;;;;5037619;28;20022;-83
2021/06/08 03:13:04;;;;;;;3.00;2.80;;;;;;;;;;5042747;28;20047;-81
2021/06/08 03:15:34;;;;;;;2.95;2.75;;;;;;;;;;5044171;28;20037;-82
2021/06/08 03:18:01;;;;;;;3.30;3.00;;;;;;;;;;5039239;28;20033;-83
2021/06/08 03:20:46;;;;;;;2.97;2.78;;;;;;;;;;5039074;28;20034;-82
2021/06/08 03:23:13;;;;;;;3.65;3.35;;;;;;;;;;5039874;28;20022;-83
2021/06/08 03:25:39;;;;;;;3.13;2.90;;;;;;;;;;5037566;28;20021;-81
2021/06/08 03:28:07;;;;;;;3.13;2.63;;;;;;;;;;5037785;28;20038;-81
2021/06/08 03:30:33;;;;;;;3.17;2.65;;;;;;;;;;5053389;28;20029;-81
2021/06/08 03:33:00;;;;;;;2.50;2.30;;;;;;;;;;5037827;28;20026;-81
2021/06/08 03:35:29;;;;;;;2.15;2.05;;;;;;;;;;5037233;28;20029;-81
2021/06/08 03:37:55;;;;;;;2.72;2.53;;;;;;;;;;5030764;28;20041;-81
2021/06/08 03:40:22;;;;;;;7.80;3.83;;;;;;;;;;5036977;28;20025;-81
2021/06/08 03:42:48;;;;;;;3.17;2.88;;;;;;;;;;5037124;28;20152;-81
2021/06/08 03:45:16;;;;;;;3.65;3.22;;;;;;;;;;5036665;28;20022;-81
2021/06/08 03:47:42;;;;;;;2.70;2.50;;;;;;;;;;5036226;28;20022;-81
2021/06/08 03:50:09;;;;;;;2.13;2.03;;;;;;;;;;5037697;28;20155;-80
2021/06/08 03:52:35;;;;;;;2.40;2.30;;;;;;;;;;5035706;28;20022;-81
2021/06/08 03:55:02;;;;;;;2.03;1.92;;;;;;;;;;5035705;28;20377;-81
2021/06/08 03:57:31;;;;;;;2.65;2.45;;;;;;;;;;5039259;28;20574;-80
2021/06/08 03:59:58;;;;;;;3.35;3.08;;;;;;;;;;5042381;28;20021;-80
2021/06/08 04:02:25;;;;;;;4.68;2.90;;;;;;;;;;5041492;28;20366;-80
2021/06/08 04:04:51;;;;;;;4.18;3.78;;;;;;;;;;5039644;28;20025;-80
2021/06/08 04:07:20;;;;;;;3.58;3.20;;;;;;;;;;5042142;28;20029;-79
2021/06/08 04:09:48;;;;;;;3.75;2.67;;;;;;;;;;5045615;28;20025;-80
2021/06/08 04:12:14;;;;;;;4.13;3.58;;;;;;;;;;5043701;28;20040;-80
2021/06/08 04:14:42;;;;;;;3.70;3.22;;;;;;;;;;5038844;28;20028;-79
2021/06/08 04:17:09;;;;;;;3.28;3.00;;;;;;;;;;5038824;28;20048;-80
2021/06/08 04:19:35;;;;;;;2.80;2.60;;;;;;;;;;5040053;28;20030;-80
2021/06/08 04:22:01;;;;;;;3.05;2.85;;;;;;;;;;5038533;28;20033;-81
2021/06/08 04:24:27;;;;;;;3.53;3.22;;;;;;;;;;5038742;28;20085;-77
2021/06/08 04:26:54;;;;;;;3.45;2.72;;;;;;;;;;5035679;28;20028;-76
2021/06/08 04:29:20;;;;;;;3.45;2.80;;;;;;;;;;5038555;28;20017;-76
2021/06/08 04:31:46;;;;;;;3.03;2.78;;;;;;;;;;5035833;28;20034;-76
2021/06/08 04:34:18;;;;;;;2.60;2.22;;;;;;;;;;5033837;28;20235;-76
2021/06/08 04:36:45;;;;;;;3.90;2.40;;;;;;;;;;5034843;28;20026;-77
2021/06/08 04:39:11;;;;;;;2.97;2.40;;;;;;;;;;5035250;28;20482;-77
2021/06/08 04:41:37;;;;;;;3.28;3.05;;;;;;;;;;5034367;28;20386;-77
2021/06/08 04:44:04;;;;;;;2.92;2.60;;;;;;;;;;5034746;28;20025;-77
2021/06/08 04:46:30;;;;;;;2.65;2.42;;;;;;;;;;5034727;28;20027;-77
2021/06/08 04:48:56;;;;;;;1.75;1.65;;;;;;;;;;5034449;28;20472;-77
2021/06/08 04:51:22;;;;;;;3.03;2.83;;;;;;;;;;5034567;28;20026;-77
2021/06/08 04:53:48;;;;;;;3.33;3.03;;;;;;;;;;5033219;28;20026;-79
2021/06/08 04:56:15;;;;;;;3.25;2.92;;;;;;;;;;5035491;28;20482;-78
2021/06/08 04:58:42;;;;;;;3.03;2.67;;;;;;;;;;5041796;28;20075;-78
2021/06/08 05:01:11;;;;;;;2.88;2.63;;;;;;;;;;5046857;28;20028;-78
2021/06/08 05:03:41;;;;;;;4.47;2.47;;;;;;;;;;5035719;28;20030;-82
2021/06/08 05:06:13;;;;;;;5.13;3.13;;;;;;;;;;5036270;28;20053;-81
2021/06/08 05:08:41;;;;;;;3.58;3.28;;;;;;;;;;5040312;28;20025;-81
2021/06/08 05:11:18;;;;;;;2.97;2.75;;;;;;;;;;5056884;28;20461;-81
2021/06/08 05:13:52;;;;;;;2.75;2.55;;;;;;;;;;5045250;28;20036;-83
2021/06/08 05:16:18;;;;;;;2.13;2.00;;;;;;;;;;5038645;28;20037;-81
2021/06/08 05:18:52;;;;;;;3.30;3.00;;;;;;;;;;5036764;28;20037;-80
2021/06/08 05:21:18;;;;;;;2.58;2.38;;;;;;;;;;5038636;28;20478;-80
2021/06/08 05:23:45;;;;;;;2.53;2.08;;;;;;;;;;5040932;28;20129;-82
2021/06/08 05:26:12;;;;;;;4.45;2.15;;;;;;;;;;5041531;28;20030;-83
2021/06/08 05:28:41;;;;;;;1.63;1.52;;;;;;;;;;5046250;28;20025;-82
2021/06/08 05:31:07;;;;;;;2.92;2.63;;;;;;;;;;5053026;28;20036;-82
2021/06/08 05:33:33;;;;;;;2.83;2.63;;;;;;;;;;5042747;28;20052;-82
2021/06/08 05:36:00;;;;;;;2.35;2.25;;;;;;;;;;5043672;28;20029;-82
2021/06/08 05:38:36;;;;;;;2.83;2.63;;;;;;;;;;5045342;28;20033;-81
2021/06/08 05:41:04;;;;;;;2.85;2.53;;;;;;;;;;5044515;28;20048;-83
2021/06/08 05:43:30;;;;;;;2.42;2.22;;;;;;;;;;5045406;28;20030;-82
2021/06/08 05:45:56;;;;;;;3.47;3.17;;;;;;;;;;5041181;28;20385;-83
2021/06/08 05:48:23;;;;;;;2.80;2.60;;;;;;;;;;5038974;28;20077;-83
2021/06/08 05:50:49;;;;;;;2.30;2.10;;;;;;;;;;5039841;28;20120;-84
2021/06/08 05:53:16;;;;;;;3.33;3.03;;;;;;;;;;5037825;28;20033;-83
2021/06/08 05:55:46;;;;;;;2.40;2.30;;;;;;;;;;5039082;28;20104;-82
2021/06/08 05:58:12;;;;;;;1.90;1.80;;;;;;;;;;5041505;28;20037;-84
2021/06/08 06:00:38;;;;;;;1.70;1.58;;;;;;;;;;5049446;28;20108;-82
2021/06/08 06:03:04;;;;;;;1.83;1.73;;;;;;;;;;5041414;28;20041;-82
2021/06/08 06:05:31;;;;;;;2.95;2.75;;;;;;;;;;5044042;28;20022;-82
2021/06/08 06:07:57;;;;;;;2.30;2.20;;;;;;;;;;5038979;28;20385;-83
2021/06/08 06:10:24;;;;;;;2.40;2.13;;;;;;;;;;5041847;28;20080;-83
2021/06/08 06:12:52;;;;;;;2.30;2.20;;;;;;;;;;5039332;28;20104;-84
2021/06/08 06:15:18;;;;;;;3.33;3.03;;;;;;;;;;5040578;28;20036;-82
2021/06/08 06:17:47;;;;;;;2.80;2.60;;;;;;;;;;5041877;28;20051;-83
2021/06/08 06:20:14;;;;;;;3.67;2.70;;;;;;;;;;5041885;28;20033;-82
2021/06/08 06:22:41;;;;;;;3.42;3.13;;;;;;;;;;5040615;28;20018;-83
2021/06/08 06:25:11;;;;;;;4.85;4.45;;;;;;;;;;5042688;28;20052;-83
2021/06/08 06:27:39;;;;;;;4.50;3.88;;;;;;;;;;5034589;28;20030;-83
2021/06/08 06:30:06;;;;;;;3.47;3.17;;;;;;;;;;5049046;28;20021;-84
2021/06/08 06:32:33;;;;;;;2.80;2.60;;;;;;;;;;5038231;28;20037;-84
2021/06/08 06:34:59;;;;;;;2.60;2.47;;;;;;;;;;5037129;28;20059;-83
2021/06/08 06:37:25;;;;;;;2.95;2.75;;;;;;;;;;5037622;28;20029;-82
2021/06/08 06:39:53;;;;;;;4.35;3.17;;;;;;;;;;5039193;28;20029;-82
2021/06/08 06:42:19;;;;;;;2.40;2.20;;;;;;;;;;5040983;28;20034;-82
2021/06/08 06:44:46;;;;;;;3.42;3.17;;;;;;;;;;5041628;28;20025;-83
2021/06/08 06:47:15;;;;;;;3.83;3.17;;;;;;;;;;5046994;28;20009;-81
2021/06/08 06:49:41;;;;;;;3.85;3.45;;;;;;;;;;5056394;28;20120;-81
2021/06/08 06:52:08;;;;;;;7.25;6.05;;;;;;;;;;5047689;28;20102;-81
2021/06/08 06:54:34;;;;;;;5.30;4.80;;;;;;;;;;5042073;28;20386;-83
2021/06/08 06:57:01;;;;;;;4.82;4.32;;;;;;;;;;5040754;28;20017;-81
2021/06/08 06:59:27;;;;;;;4.30;3.75;;;;;;;;;;5051024;28;20047;-81
2021/06/08 07:01:54;;;;;;;4.82;4.10;;;;;;;;;;5043786;28;20097;-83
2021/06/08 07:04:23;;;;;;;3.75;3.45;;;;;;;;;;5040392;28;20018;-84
2021/06/08 07:06:50;;;;;;;5.43;4.93;;;;;;;;;;5038301;28;20029;-84
2021/06/08 07:09:16;;;;;;;3.92;3.63;;;;;;;;;;5037172;28;20363;-84
2021/06/08 07:11:44;;;;;;;3.80;3.45;;;;;;;;;;5037074;28;20030;-84
2021/06/08 07:14:10;;;;;;;3.65;3.35;;;;;;;;;;5038600;28;20103;-84
2021/06/08 07:16:36;;;;;;;6.68;5.90;;;;;;;;;;5041536;28;20036;-83
2021/06/08 07:19:02;;;;;;;8.65;5.13;;;;;;;;;;5040654;28;20033;-84
2021/06/08 07:21:29;;;;;;;8.10;6.90;;;;;;;;;;5038295;28;20040;-84
2021/06/08 07:23:55;;;;;;;6.85;5.25;;;;;;;;;;5040806;28;20072;-83
2021/06/08 07:26:26;;;;;;;6.53;5.90;;;;;;;;;;5037948;28;20484;-84
2021/06/08 07:28:54;;;;;;;9.93;8.98;;;;;;;;;;5039930;28;20116;-84
2021/06/08 07:31:30;;;;;;;7.80;6.25;;;;;;;;;;5040763;28;20025;-83
2021/06/08 07:34:03;;;;;;;5.80;5.22;;;;;;;;;;5045116;28;20018;-83
2021/06/08 07:36:37;;;;;;;6.18;5.53;;;;;;;;;;5047852;28;20021;-82
2021/06/08 07:39:11;;;;;;;5.40;4.88;;;;;;;;;;5045902;28;20022;-82
2021/06/08 07:41:37;;;;;;;3.78;3.42;;;;;;;;;;5045745;28;20022;-83
2021/06/08 07:44:05;;;;;;;6.57;6.05;;;;;;;;;;5047938;28;20022;-83
2021/06/08 07:46:32;;;;;;;7.05;6.45;;;;;;;;;;5047185;28;20060;-82
2021/06/08 07:48:59;;;;;;;6.13;5.57;;;;;;;;;;5046632;28;20021;-82
2021/06/08 07:51:27;;;;;;;12.75;9.95;;;;;;;;;;5046673;28;20033;-83
2021/06/08 07:53:54;;;;;;;10.60;8.98;;;;;;;;;;5048218;28;20040;-83
2021/06/08 07:56:21;;;;;;;8.95;7.57;;;;;;;;;;5047675;28;20140;-83
2021/06/08 07:58:48;;;;;;;9.70;8.40;;;;;;;;;;5051643;28;20046;-81
2021/06/08 08:01:14;;;;;;;6.50;5.53;;;;;;;;;;5057336;28;20029;-81
2021/06/08 08:03:41;;;;;;;17.63;11.50;;;;;;;;;;5066604;28;20024;-83
2021/06/08 08:06:09;;;;;;;8.00;7.03;;;;;;;;;;5064812;28;20097;-81
2021/06/08 08:08:35;;;;;;;12.48;9.55;;;;;;;;;;5065890;28;20053;-82
2021/06/08 08:11:04;;;;;;;10.98;9.80;;;;;;;;;;5059903;28;20081;-83
2021/06/08 08:13:31;;;;;;;8.05;6.63;;;;;;;;;;5044936;28;20029;-83
2021/06/08 08:15:57;;;;;;;7.38;6.65;;;;;;;;;;5046124;28;20025;-83
2021/06/08 08:18:24;;;;;;;6.45;5.55;;;;;;;;;;5044205;28;20045;-83
2021/06/08 08:20:56;;;;;;;5.57;5.10;;;;;;;;;;5042143;28;20029;-83
2021/06/08 08:23:24;;;;;;;;;;;;;;;;;;5029642;28;20022;-82
2021/06/08 08:25:50;;;;;;;7.65;6.95;;;;;;;;;;5026753;28;20014;-83
2021/06/08 08:28:16;;;;;;;7.68;6.88;;;;;;;;;;5039842;28;20024;-83
2021/06/08 08:30:42;;;;;;;8.57;6.93;;;;;;;;;;5056287;28;20036;-83
2021/06/08 08:33:11;;;;;;;6.18;5.68;;;;;;;;;;5066392;28;20493;-83
2021/06/08 08:35:38;;;;;;;8.38;7.03;;;;;;;;;;5049532;28;20063;-83
2021/06/08 08:38:04;;;;;;;11.07;9.68;;;;;;;;;;5043838;28;20026;-83
2021/06/08 08:40:31;;;;;;;6.85;6.22;;;;;;;;;;5042899;28;20029;-82
2021/06/08 08:43:01;;;;;;;7.07;6.40;;;;;;;;;;5040788;28;20037;-82
2021/06/08 08:45:27;;;;;;;6.65;5.90;;;;;;;;;;5052451;28;20028;-82
2021/06/08 08:47:54;;;;;;;6.00;4.97;;;;;;;;;;5069842;28;20037;-82
2021/06/08 08:50:20;;;;;;;7.38;6.63;;;;;;;;;;5054869;28;20045;-81
2021/06/08 08:52:56;;;;;;;10.45;9.07;;;;;;;;;;5034962;28;20441;-81
2021/06/08 08:55:26;;;;;;;11.05;9.93;;;;;;;;;;5021943;28;20034;-81
2021/06/08 08:57:53;;;;;;;8.10;7.38;;;;;;;;;;5027514;28;20033;-81
2021/06/08 09:00:21;;;;;;;8.95;8.10;;;;;;;;;;5064800;28;20032;-80
2021/06/08 09:02:48;;;;;;;8.52;7.68;;;;;;;;;;5057759;28;20056;-81
2021/06/08 09:05:14;;;;;;;7.07;6.28;;;;;;;;;;5056732;28;20021;-81
2021/06/08 09:07:40;;;;;;;11.88;7.97;;;;;;;;;;5057872;28;20029;-82
2021/06/08 09:10:09;;;;;;;9.63;8.73;;;;;;;;;;5054992;28;20030;-81
2021/06/08 09:12:36;;;;;;;6.43;5.93;;;;;;;;;;5038184;28;20021;-81
2021/06/08 09:15:03;;;;;;;12.10;8.95;;;;;;;;;;5022067;28;20455;-81
2021/06/08 09:17:30;;;;;;;6.35;5.85;;;;;;;;;;5042546;28;20087;-80
2021/06/08 09:19:57;;;;;;;10.07;8.82;;;;;;;;;;5056966;28;20109;-80
2021/06/08 09:22:24;;;;;;;7.82;7.13;;;;;;;;;;5020944;28;20040;-80
2021/06/08 09:24:54;;;;;;;13.00;10.45;;;;;;;;;;5019385;28;20018;-81
2021/06/08 09:27:28;;;;;;;6.40;5.83;;;;;;;;;;5022250;28;20014;-81
2021/06/08 09:29:54;;;;;;;11.75;8.82;;;;;;;;;;5047992;28;20017;-80
2021/06/08 09:32:22;;;;;;;11.98;9.38;;;;;;;;;;5030656;28;20121;-79
2021/06/08 09:34:55;;;;;;;8.10;5.90;;;;;;;;;;5029180;28;20033;-81
2021/06/08 09:37:35;;;;;;;5.78;5.28;;;;;;;;;;5020909;28;20115;-81
2021/06/08 09:40:01;;;;;;;4.80;4.40;;;;;;;;;;5025975;28;20018;-80
2021/06/08 09:42:31;;;;;;;4.88;4.47;;;;;;;;;;5047939;28;20025;-81
2021/06/08 09:45:12;;;;;;;7.30;6.63;;;;;;;;;;5054349;28;20022;-81
2021/06/08 09:47:38;;;;;;;8.68;6.10;;;;;;;;;;5042430;28;20492;-82
2021/06/08 09:50:23;;;;;;;8.77;7.93;;;;;;;;;;5055294;28;20014;-82
2021/06/08 09:52:49;;;;;;;7.45;6.03;;;;;;;;;;5026356;28;20030;-82
2021/06/08 09:55:15;;;;;;;5.50;5.00;;;;;;;;;;5028204;28;20033;-81
2021/06/08 09:57:44;;;;;;;6.53;5.40;;;;;;;;;;5037233;28;20034;-81
2021/06/08 10:00:12;;;;;;;5.75;5.25;;;;;;;;;;5055802;28;20021;-83
2021/06/08 10:02:41;;;;;;;5.90;5.40;;;;;;;;;;5076348;22;20396;-82
2021/06/08 10:05:37;;;;;;;5.25;4.85;;;;;;;;;;5075966;28;20453;-83
2021/06/08 10:08:04;;;;;;;5.55;5.03;;;;;;;;;;5058018;28;20090;-83
2021/06/08 10:10:44;;;;;;;7.30;6.30;;;;;;;;;;5066617;28;20029;-85
2021/06/08 10:13:19;;;;;;;6.57;5.90;;;;;;;;;;5062911;28;20044;-83
2021/06/08 10:15:51;;;;;;;8.05;5.72;;;;;;;;;;5063622;28;20040;-83
2021/06/08 10:18:17;;;;;;;9.50;5.80;;;;;;;;;;5071537;28;20032;-81
2021/06/08 10:20:48;;;;;;;6.63;5.40;;;;;;;;;;5069493;28;20025;-83
2021/06/08 10:23:36;;;;;;;5.55;5.00;;;;;;;;;;5064655;28;20123;-84
2021/06/08 10:26:05;;;;;;;7.07;5.93;;;;;;;;;;5069275;28;20356;-84
2021/06/08 10:28:31;;;;;;;5.60;5.03;;;;;;;;;;5066579;28;20029;-84
2021/06/08 10:30:58;;;;;;;5.47;4.97;;;;;;;;;;5064450;28;20032;-82
2021/06/08 10:33:24;;;;;;;4.90;4.50;;;;;;;;;;5070576;28;20025;-83
2021/06/08 10:35:51;;;;;;;5.25;4.85;;;;;;;;;;5082501;28;20111;-83
2021/06/08 10:38:18;;;;;;;5.53;5.05;;;;;;;;;;5088539;28;20073;-84
2021/06/08 10:40:46;;;;;;;6.60;6.00;;;;;;;;;;5091333;28;20051;-83
2021/06/08 10:43:19;;;;;;;5.38;4.88;;;;;;;;;;5055339;28;20069;-84
2021/06/08 10:45:46;;;;;;;7.93;5.57;;;;;;;;;;5046402;28;20478;-83
2021/06/08 10:48:16;;;;;;;7.30;6.57;;;;;;;;;;5044926;28;20033;-84
2021/06/08 10:50:46;;;;;;;7.03;6.43;;;;;;;;;;5046979;28;20112;-84
2021/06/08 10:53:32;;;;;;;5.22;4.70;;;;;;;;;;5063257;28;20032;-84
2021/06/08 10:55:59;;;;;;;6.82;5.15;;;;;;;;;;5066964;28;20033;-83
2021/06/08 10:58:44;;;;;;;5.40;4.90;;;;;;;;;;5068615;28;20047;-85
2021/06/08 11:01:41;;;;;;;5.35;4.88;;;;;;;;;;5070409;28;20013;-82
2021/06/08 11:04:15;;;;;;;6.07;5.47;;;;;;;;;;5061500;28;20032;-84
2021/06/08 11:06:48;;;;;;;4.50;4.10;;;;;;;;;;5067870;28;20033;-83
2021/06/08 11:09:19;;;;;;;3.83;3.53;;;;;;;;;;5071614;28;20211;-83
2021/06/08 11:11:51;;;;;;;4.50;4.10;;;;;;;;;;5072556;28;20104;-84
2021/06/08 11:14:33;;;;;;;6.82;6.03;;;;;;;;;;5071209;28;20045;-83
2021/06/08 11:16:59;;;;;;;5.47;4.97;;;;;;;;;;5073333;28;20021;-83
2021/06/08 11:19:44;;;;;;;5.47;4.97;;;;;;;;;;5072390;28;20029;-85
2021/06/08 11:22:14;;;;;;;9.00;6.78;;;;;;;;;;5070536;28;20057;-82
2021/06/08 11:24:41;;;;;;;10.82;5.72;;;;;;;;;;5074201;28;20024;-84
2021/06/08 11:27:08;;;;;;;4.45;4.05;;;;;;;;;;5073181;28;20025;-83
2021/06/08 11:29:47;;;;;;;6.13;5.53;;;;;;;;;;5072559;28;20029;-83
2021/06/08 11:32:32;;;;;;;4.97;4.57;;;;;;;;;;5068725;28;20039;-83
2021/06/08 11:35:19;;;;;;;5.43;4.93;;;;;;;;;;5105750;28;20066;-83
2021/06/08 11:37:49;;;;;;;4.55;3.80;;;;;;;;;;5091020;28;20544;-85
2021/06/08 11:40:34;;;;;;;5.75;5.22;;;;;;;;;;5089773;28;20028;-84
2021/06/08 11:43:00;;;;;;;4.88;4.40;;;;;;;;;;5076068;28;20062;-82
2021/06/08 11:45:27;;;;;;;5.50;4.70;;;;;;;;;;5057097;28;20015;-84
2021/06/08 11:48:02;;;;;;;4.65;4.25;;;;;;;;;;5058251;28;20074;-81
2021/06/08 11:50:44;;;;;;;4.57;4.22;;;;;;;;;;5056316;28;20025;-83
2021/06/08 11:53:10;;;;;;;;;;;;;;;;;;5070225;28;20036;-83
2021/06/08 11:55:36;;;;;;;4.53;3.65;;;;;;;;;;5064770;28;19909;-83
2021/06/08 11:58:03;;;;;;;4.65;4.25;;;;;;;;;;5063720;28;20159;-83
2021/06/08 12:00:51;;;;;;;4.65;4.25;;;;;;;;;;5066699;28;20041;-83
2021/06/08 12:03:31;;;;;;;4.38;3.60;;;;;;;;;;5074252;28;20031;-85
2021/06/08 12:05:58;;;;;;;6.43;5.13;;;;;;;;;;5090794;28;20021;-85
2021/06/08 12:08:32;;;;;;;6.35;4.55;;;;;;;;;;5093413;28;20017;-83
2021/06/08 12:10:58;;;;;;;3.90;3.60;;;;;;;;;;5096354;28;20025;-83
2021/06/08 12:13:28;;;;;;;4.63;4.32;;;;;;;;;;5074777;28;20025;-82
2021/06/08 12:15:55;;;;;;;4.13;3.72;;;;;;;;;;5056941;28;20026;-83
2021/06/08 12:18:27;;;;;;;4.30;4.00;;;;;;;;;;5057480;28;20025;-83
2021/06/08 12:20:54;;;;;;;5.35;4.85;;;;;;;;;;5052612;28;20022;-84
2021/06/08 12:23:31;;;;;;;6.43;5.32;;;;;;;;;;5058737;28;20022;-82
2021/06/08 12:26:10;;;;;;;5.13;4.72;;;;;;;;;;5065020;28;20036;-80
2021/06/08 12:28:37;;;;;;;4.80;4.25;;;;;;;;;;5070161;28;20079;-82
2021/06/08 12:31:20;;;;;;;5.80;5.30;;;;;;;;;;5064238;28;20037;-82
2021/06/08 12:33:49;;;;;;;5.88;5.38;;;;;;;;;;5056027;28;20053;-82
2021/06/08 12:36:16;;;;;;;5.13;4.63;;;;;;;;;;5065946;28;20040;-81
2021/06/08 12:38:52;;;;;;;6.68;5.10;;;;;;;;;;5058543;28;20018;-82
2021/06/08 12:41:22;;;;;;;6.15;5.00;;;;;;;;;;5055646;28;20030;-82
2021/06/08 12:43:51;;;;;;;4.22;3.92;;;;;;;;;;5059213;28;20021;-82
2021/06/08 12:46:31;;;;;;;4.90;4.50;;;;;;;;;;5072789;28;20105;-83
2021/06/08 12:49:17;;;;;;;5.50;5.00;;;;;;;;;;5075012;28;20108;-83
2021/06/08 12:51:44;;;;;;;4.50;4.20;;;;;;;;;;5076435;28;20036;-82
2021/06/08 12:54:26;;;;;;;4.28;3.97;;;;;;;;;;5075744;28;20040;-82
2021/06/08 12:56:52;;;;;;;5.45;4.95;;;;;;;;;;5076614;28;20049;-83
2021/06/08 12:59:23;;;;;;;4.65;4.25;;;;;;;;;;5073904;28;20505;-82
2021/06/08 13:01:49;;;;;;;4.25;3.95;;;;;;;;;;5066565;28;20029;-84
2021/06/08 13:04:16;;;;;;;6.20;4.95;;;;;;;;;;5069095;28;20021;-84
2021/06/08 13:06:42;;;;;;;4.72;4.43;;;;;;;;;;5045962;28;20021;-84
2021/06/08 13:09:08;;;;;;;4.03;3.72;;;;;;;;;;5055335;28;20048;-82
2021/06/08 13:11:34;;;;;;;4.65;4.28;;;;;;;;;;5067082;28;20109;-83
2021/06/08 13:14:05;;;;;;;6.20;4.82;;;;;;;;;;5068604;28;20059;-82
2021/06/08 13:16:33;;;;;;;5.05;4.65;;;;;;;;;;5061664;28;20021;-84
2021/06/08 13:19:19;;;;;;;4.10;3.70;;;;;;;;;;5075532;28;20040;-83
2021/06/08 13:21:45;;;;;;;5.40;4.90;;;;;;;;;;5070916;28;20089;-83
2021/06/08 13:24:16;;;;;;;4.72;4.32;;;;;;;;;;5068404;28;20041;-84
2021/06/08 13:26:42;;;;;;;5.80;3.90;;;;;;;;;;5070035;28;20045;-82
2021/06/08 13:29:15;;;;;;;4.10;3.80;;;;;;;;;;5068776;28;20031;-83
2021/06/08 13:31:42;;;;;;;4.30;3.67;;;;;;;;;;5068239;28;20020;-84
2021/06/08 13:34:23;;;;;;;4.63;3.20;;;;;;;;;;5071108;28;20028;-83
2021/06/08 13:36:49;;;;;;;4.85;3.78;;;;;;;;;;5060248;28;20026;-83
2021/06/08 13:39:19;;;;;;;4.07;3.78;;;;;;;;;;5058380;28;20395;-83
2021/06/08 13:41:46;;;;;;;5.40;4.00;;;;;;;;;;5064516;28;20016;-82
2021/06/08 13:44:13;;;;;;;8.95;4.05;;;;;;;;;;5062541;28;20059;-83
2021/06/08 13:46:40;;;;;;;4.03;3.30;;;;;;;;;;5065972;28;20040;-83
2021/06/08 13:49:06;;;;;;;5.18;3.60;;;;;;;;;;5063353;28;20084;-82
2021/06/08 13:51:33;;;;;;;3.50;3.13;;;;;;;;;;5063648;28;20054;-84
2021/06/08 13:54:10;;;;;;;4.75;3.53;;;;;;;;;;5054945;28;20033;-84
2021/06/08 14:01:56;;;;;;;3.13;2.90;;;;;;;;;;5064590;28;20048;-83
2021/06/08 14:04:23;;;;;;;3.22;3.03;;;;;;;;;;5075816;28;20029;-83
2021/06/08 14:06:54;;;;;;;3.60;3.30;;;;;;;;;;5090711;28;20021;-84
2021/06/08 14:09:22;;;;;;;3.73;3.00;;;;;;;;;;5083629;28;20020;-84
2021/06/08 14:11:49;;;;;;;3.35;3.15;;;;;;;;;;5074759;28;20036;-82
2021/06/08 14:14:17;;;;;;;3.35;3.13;;;;;;;;;;5063610;28;20017;-83
2021/06/08 14:16:49;;;;;;;3.00;2.80;;;;;;;;;;5048081;28;20036;-83
2021/06/08 14:19:17;;;;;;;3.72;3.05;;;;;;;;;;5045230;28;20018;-83
2021/06/08 14:21:43;;;;;;;4.22;3.22;;;;;;;;;;5047240;28;20085;-84
2021/06/08 14:24:09;;;;;;;5.03;3.05;;;;;;;;;;5054466;28;20055;-82
2021/06/08 14:26:36;;;;;;;3.35;3.05;;;;;;;;;;5056232;28;20017;-84
2021/06/08 14:29:05;;;;;;;4.78;3.25;;;;;;;;;;5056217;28;20096;-82
2021/06/08 14:31:32;;;;;;;3.92;3.50;;;;;;;;;;5058195;28;20021;-81
2021/06/08 14:33:59;;;;;;;3.38;3.15;;;;;;;;;;5083418;28;20036;-82
2021/06/08 14:36:28;;;;;;;3.03;2.83;;;;;;;;;;5072607;28;20032;-82
2021/06/08 14:38:54;;;;;;;3.58;3.28;;;;;;;;;;5071269;28;20009;-84
2021/06/08 14:41:21;;;;;;;5.63;3.30;;;;;;;;;;5065081;28;20017;-83
2021/06/08 14:43:47;;;;;;;4.50;3.65;;;;;;;;;;5055181;28;20112;-84
2021/06/08 14:46:13;;;;;;;3.88;2.92;;;;;;;;;;5064607;28;20389;-84
2021/06/08 14:48:40;;;;;;;5.20;3.42;;;;;;;;;;5062882;28;20052;-83
2021/06/08 14:51:25;;;;;;;3.80;3.38;;;;;;;;;;5061277;28;20029;-85
2021/06/08 14:53:52;;;;;;;4.88;3.58;;;;;;;;;;5046667;28;20033;-83
2021/06/08 14:56:18;;;;;;;3.28;2.97;;;;;;;;;;5046338;28;20041;-84
2021/06/08 14:58:45;;;;;;;5.35;3.40;;;;;;;;;;5046172;28;20032;-83